Time;durP1;ratioP1;P1;durP2;ratioP2;P2;SDS_P1;SDS_P2;PMS_P1;PMS_P2;Temp;Humidity;BMP_temperature;BMP_pressure;BME280_temperature;BME280_humidity;BME280_pressure;Samples;Min_cycle;Max_cycle;Signal;HPM_P1;HPM_P2
2023/03/29 00:02:15;;;;;;;98.60;36.90;;;;;;;-4.61;88.32;101193.81;212404;1291;139755;-80
2023/03/29 00:07:16;;;;;;;87.80;31.80;;;;;;;-4.65;88.77;101190.52;212792;1291;138983;-79
2023/03/29 00:12:16;;;;;;;87.60;32.40;;;;;;;-4.66;89.10;101190.48;212284;1289;139340;-80
2023/03/29 00:17:17;;;;;;;78.00;29.90;;;;;;;-4.70;88.78;101186.29;212753;1291;139481;-79
2023/03/29 00:22:17;;;;;;;72.40;27.00;;;;;;;-4.76;88.61;101183.29;212292;1289;139567;-79
2023/03/29 00:27:18;;;;;;;65.30;26.00;;;;;;;-4.81;88.69;101184.23;212854;1292;139286;-78
2023/03/29 00:32:18;;;;;;;70.10;26.30;;;;;;;-4.84;88.75;101179.85;212445;1291;139692;-79
2023/03/29 00:37:18;;;;;;;62.80;25.50;;;;;;;-4.86;89.30;101176.39;212678;1286;139295;-79
2023/03/29 00:42:19;;;;;;;61.20;26.00;;;;;;;-4.89;88.96;101175.09;212213;1289;140419;-79
2023/03/29 00:47:31;;;;;;;70.30;27.90;;;;;;;-4.93;89.05;101169.27;212847;1288;139895;-79
2023/03/29 00:52:33;;;;;;;62.90;25.80;;;;;;;-4.95;89.98;101163.56;212262;1291;139161;-79
2023/03/29 00:57:34;;;;;;;60.30;22.70;;;;;;;-4.96;89.93;101160.50;212784;1291;139347;-79
2023/03/29 01:02:38;;;;;;;54.70;22.90;;;;;;;-4.97;90.35;101154.14;212375;1289;140142;-80
2023/03/29 01:08:02;;;;;;;52.00;21.10;;;;;;;-4.98;90.34;101149.95;212924;1290;139252;-80
2023/03/29 01:13:08;;;;;;;53.20;21.00;;;;;;;-4.97;90.82;101145.23;212648;1286;140178;-79
2023/03/29 01:18:08;;;;;;;46.00;19.20;;;;;;;-4.99;90.84;101138.83;213071;1290;139785;-79
2023/03/29 01:23:26;;;;;;;50.70;21.20;;;;;;;-5.02;90.54;101138.66;212530;1294;139864;-79
2023/03/29 01:28:37;;;;;;;56.00;23.50;;;;;;;-5.03;90.55;101137.09;212909;1290;139523;-79
2023/03/29 01:33:40;;;;;;;50.00;19.20;;;;;;;-5.05;90.70;101136.26;212735;1289;142212;-79
2023/03/29 01:38:49;;;;;;;52.20;21.50;;;;;;;-5.09;90.83;101135.96;212964;1285;99322;-80
2023/03/29 01:43:59;;;;;;;60.80;24.20;;;;;;;-5.12;90.95;101130.74;212537;1289;139255;-79
2023/03/29 01:49:33;;;;;;;56.70;24.30;;;;;;;-5.11;91.52;101122.22;212346;1292;140632;-79
2023/03/29 01:54:39;;;;;;;60.40;23.80;;;;;;;-5.10;91.74;101119.91;212899;1291;139716;-79
2023/03/29 01:59:43;;;;;;;54.20;22.10;;;;;;;-5.12;91.23;101117.81;212399;1291;140814;-79
2023/03/29 02:04:49;;;;;;;60.80;23.50;;;;;;;-5.16;91.09;101114.07;212851;1292;139494;-79
2023/03/29 02:09:52;;;;;;;49.70;20.90;;;;;;;-5.19;91.27;101112.16;212336;1286;139555;-79
2023/03/29 02:14:52;;;;;;;55.00;22.50;;;;;;;-5.23;91.13;101105.81;212902;1286;98885;-79
2023/03/29 02:20:12;;;;;;;60.90;23.30;;;;;;;-5.27;91.15;101104.70;212368;1289;139229;-79
2023/03/29 02:25:15;;;;;;;55.90;23.70;;;;;;;-5.30;91.03;101101.84;212885;1289;139410;-79
2023/03/29 02:30:18;;;;;;;54.70;22.10;;;;;;;-5.33;91.12;101096.29;212439;1285;140445;-80
2023/03/29 02:35:41;;;;;;;53.70;21.90;;;;;;;-5.33;91.58;101089.85;213153;1291;139581;-79
2023/03/29 02:40:42;;;;;;;50.70;19.50;;;;;;;-5.31;91.96;101089.44;212367;1291;140506;-79
2023/03/29 02:45:44;;;;;;;57.20;21.70;;;;;;;-5.29;92.05;101088.11;213376;1287;139533;-80
2023/03/29 02:50:49;;;;;;;56.50;24.30;;;;;;;-5.30;92.10;101081.89;212529;1289;139684;-80
2023/03/29 02:55:50;;;;;;;61.80;23.80;;;;;;;-5.28;92.42;101073.63;212925;1289;139406;-79
2023/03/29 03:00:51;;;;;;;66.30;24.30;;;;;;;-5.30;91.93;101062.66;212464;1292;139875;-80
2023/03/29 03:05:51;;;;;;;69.20;24.90;;;;;;;-5.31;92.26;101053.76;212881;1291;139663;-80
2023/03/29 03:10:52;;;;;;;59.50;22.10;;;;;;;-5.31;91.99;101053.00;212389;1286;140439;-80
2023/03/29 03:15:53;;;;;;;55.50;23.00;;;;;;;-5.29;92.50;101052.64;212865;1291;140070;-79
2023/03/29 03:20:57;;;;;;;52.80;22.30;;;;;;;-5.28;92.46;101051.00;212402;1300;139630;-79
2023/03/29 03:25:58;;;;;;;51.60;22.50;;;;;;;-5.27;92.45;101054.48;213769;1291;139086;-80
2023/03/29 03:30:59;;;;;;;42.40;18.50;;;;;;;-5.26;92.59;101046.19;212460;1289;139938;-79
2023/03/29 03:36:04;;;;;;;49.90;22.80;;;;;;;-5.23;92.31;101047.38;212769;1292;139749;-79
2023/03/29 03:41:08;;;;;;;40.60;18.00;;;;;;;-5.23;91.76;101042.88;213212;1287;140177;-79
2023/03/29 03:46:09;;;;;;;53.10;21.70;;;;;;;-5.22;91.93;101042.34;212853;1286;139498;-79
2023/03/29 03:51:09;;;;;;;46.00;18.90;;;;;;;-5.19;92.37;101040.05;212373;1299;139591;-79
2023/03/29 03:56:10;;;;;;;51.00;18.50;;;;;;;-5.18;92.26;101031.96;212921;1287;99064;-79
2023/03/29 04:01:10;;;;;;;48.00;19.80;;;;;;;-5.17;92.31;101036.67;212315;1299;139801;-80
2023/03/29 04:06:11;;;;;;;50.60;19.40;;;;;;;-5.16;92.31;101036.00;212834;1296;139521;-80
2023/03/29 04:11:11;;;;;;;48.30;19.10;;;;;;;-5.16;92.14;101030.30;211967;1299;311155;-80
2023/03/29 04:16:11;;;;;;;49.50;19.80;;;;;;;-5.15;92.06;101030.41;212823;1289;141242;-79
2023/03/29 04:21:12;;;;;;;53.10;21.70;;;;;;;-5.15;91.79;101029.92;212290;1289;140817;-78
2023/03/29 04:26:13;;;;;;;58.30;23.50;;;;;;;-5.15;92.02;101029.83;213040;1294;98058;-79
2023/03/29 04:31:14;;;;;;;94.30;32.10;;;;;;;-5.14;92.11;101028.39;212449;1288;139651;-78
2023/03/29 04:36:14;;;;;;;81.60;30.50;;;;;;;-5.09;92.09;101030.89;212996;1299;139578;-78
2023/03/29 04:41:15;;;;;;;70.80;26.80;;;;;;;-5.03;92.04;101027.86;212457;1292;139591;-79
2023/03/29 04:46:15;;;;;;;60.20;25.50;;;;;;;-4.95;91.87;101022.85;212872;1292;139698;-79
2023/03/29 04:51:16;;;;;;;71.20;24.70;;;;;;;-4.88;91.86;101017.20;212420;1285;140058;-79
2023/03/29 04:56:16;;;;;;;84.30;28.40;;;;;;;-4.82;91.47;101012.09;212960;1286;98116;-78
2023/03/29 05:01:17;;;;;;;61.90;26.90;;;;;;;-4.80;91.54;101011.92;212416;1289;140055;-78
2023/03/29 05:06:17;;;;;;;48.90;21.90;;;;;;;-4.72;91.30;101005.62;213058;1285;139551;-79
2023/03/29 05:11:18;;;;;;;53.20;19.60;;;;;;;-4.65;91.31;100997.76;212422;1286;139898;-79
2023/03/29 05:16:19;;;;;;;53.00;20.40;;;;;;;-4.53;91.47;100991.35;212963;1288;139565;-78
2023/03/29 05:21:20;;;;;;;53.30;23.90;;;;;;;-4.40;91.32;100989.40;212393;1287;139835;-79
2023/03/29 05:26:22;;;;;;;54.00;21.70;;;;;;;-4.27;91.46;100981.70;213048;1289;98878;-78
2023/03/29 05:31:22;;;;;;;53.70;21.90;;;;;;;-4.14;91.26;100979.73;212422;1289;139761;-79
2023/03/29 05:36:23;;;;;;;50.10;19.50;;;;;;;-4.00;91.24;100983.00;212935;1286;140095;-80
2023/03/29 05:41:24;;;;;;;48.70;19.70;;;;;;;-3.85;91.19;100985.87;212457;1288;140364;-79
2023/03/29 05:46:25;;;;;;;44.00;17.60;;;;;;;-3.65;91.33;100989.96;212985;1299;139552;-80
2023/03/29 05:51:26;;;;;;;39.00;16.90;;;;;;;-3.51;91.11;100996.35;212425;1289;139864;-81
2023/03/29 05:56:26;;;;;;;42.60;18.90;;;;;;;-3.39;90.91;100999.73;213037;1289;99280;-81
2023/03/29 06:01:27;;;;;;;46.80;19.40;;;;;;;-3.25;90.81;100989.36;212490;1286;140429;-81
2023/03/29 06:06:28;;;;;;;42.60;17.00;;;;;;;-3.04;91.17;100979.62;213089;1289;139431;-81
2023/03/29 06:11:28;;;;;;;37.10;15.90;;;;;;;-2.84;90.81;100977.40;214089;1285;140341;-81
2023/03/29 06:16:29;;;;;;;34.10;13.80;;;;;;;-2.59;90.58;100972.21;216226;1285;139945;-81
2023/03/29 06:21:30;;;;;;;33.00;13.00;;;;;;;-2.21;90.03;100977.55;217540;1285;140004;-83
2023/03/29 06:26:31;;;;;;;28.70;12.10;;;;;;;-1.82;89.56;100976.84;218537;1285;96538;-82
2023/03/29 06:31:31;;;;;;;33.20;11.80;;;;;;;-1.45;89.03;100978.02;217942;1285;139414;-81
2023/03/29 06:36:33;;;;;;;39.50;16.00;;;;;;;-1.12;88.43;100972.19;218430;1285;139490;-81
2023/03/29 06:41:34;;;;;;;33.70;13.00;;;;;;;-0.77;88.45;100971.61;217871;1285;140164;-80
2023/03/29 06:46:36;;;;;;;37.40;13.60;;;;;;;-0.44;87.86;100975.52;218502;1285;140105;-82
2023/03/29 06:51:36;;;;;;;32.20;12.00;;;;;;;-0.15;87.49;100969.85;216746;1286;139532;-82
2023/03/29 06:56:37;;;;;;;29.30;12.20;;;;;;;0.15;86.91;100971.37;214796;1286;98063;-83
2023/03/29 07:01:37;;;;;;;27.80;13.00;;;;;;;0.49;86.12;100975.45;214151;1285;139186;-82
2023/03/29 07:06:39;;;;;;;28.50;13.00;;;;;;;0.77;85.79;100972.69;214562;1285;139052;-81
2023/03/29 07:11:40;;;;;;;31.60;13.50;;;;;;;0.98;85.95;100961.66;213930;1290;139559;-81
2023/03/29 07:16:40;;;;;;;36.20;16.00;;;;;;;1.14;85.28;100957.55;214723;1286;139247;-83
2023/03/29 07:21:41;;;;;;;46.70;17.30;;;;;;;1.29;85.36;100959.66;214228;1286;139940;-82
2023/03/29 07:26:41;;;;;;;33.60;12.40;;;;;;;1.46;85.36;100962.41;214922;1288;98188;-82
2023/03/29 07:31:43;;;;;;;28.60;11.00;;;;;;;1.66;85.35;100959.92;214199;1285;139325;-82
2023/03/29 07:36:44;;;;;;;31.60;13.40;;;;;;;1.86;85.52;100957.23;214805;1288;139602;-84
2023/03/29 07:41:47;;;;;;;27.50;11.20;;;;;;;2.06;84.48;100955.23;214314;1286;140417;-85
2023/03/29 07:46:48;;;;;;;25.80;11.10;;;;;;;2.33;84.03;100956.48;214815;1285;139406;-86
2023/03/29 07:51:48;;;;;;;24.00;10.40;;;;;;;2.59;83.10;100962.43;214347;1289;140625;-84
2023/03/29 07:56:49;;;;;;;19.40;9.30;;;;;;;2.90;83.08;100965.86;215039;1285;98089;-85
2023/03/29 08:01:50;;;;;;;26.00;9.70;;;;;;;3.22;82.30;100957.50;214354;1285;139168;-84
2023/03/29 08:06:51;;;;;;;21.50;9.30;;;;;;;3.53;80.30;100954.48;214832;1289;138992;-84
2023/03/29 08:11:52;;;;;;;26.30;10.50;;;;;;;3.77;79.10;100951.19;214138;1289;139476;-84
2023/03/29 08:16:53;;;;;;;20.60;8.70;;;;;;;4.00;78.36;100951.27;214731;1289;139204;-85
2023/03/29 08:21:53;;;;;;;28.40;9.10;;;;;;;4.32;77.52;100943.67;214651;1288;139340;-85
2023/03/29 08:26:54;;;;;;;15.90;7.10;;;;;;;4.68;76.73;100940.88;215228;1289;97900;-84
2023/03/29 08:31:56;;;;;;;19.70;7.30;;;;;;;5.00;74.94;100930.75;215060;1288;139800;-85
2023/03/29 08:36:57;;;;;;;23.40;8.40;;;;;;;5.27;72.76;100926.95;215390;1285;139003;-84
2023/03/29 08:42:15;;;;;;;16.90;7.70;;;;;;;5.56;72.39;100919.92;214935;1285;139257;-85
2023/03/29 08:47:19;;;;;;;18.20;7.00;;;;;;;5.88;70.94;100921.11;214981;1288;140064;-83
2023/03/29 08:52:22;;;;;;;20.90;8.00;;;;;;;6.16;70.93;100919.09;214557;1285;139290;-84
2023/03/29 08:57:40;;;;;;;16.60;8.40;;;;;;;6.55;71.15;100913.01;215033;1288;138150;-85
2023/03/29 09:02:43;;;;;;;22.00;7.40;;;;;;;7.03;69.38;100920.27;214831;1285;138829;-85
2023/03/29 09:07:43;;;;;;;16.10;7.10;;;;;;;7.34;67.32;100915.17;215150;1285;138489;-85
2023/03/29 09:12:57;;;;;;;21.00;8.70;;;;;;;7.61;66.96;100905.39;214569;1285;140269;-85
2023/03/29 09:18:25;;;;;;;13.60;5.50;;;;;;;7.93;66.34;100898.77;215008;1288;139677;-90
2023/03/29 09:23:47;;;;;;;12.90;5.60;;;;;;;8.22;66.79;100900.31;213976;1285;138576;-87
2023/03/29 09:28:47;;;;;;;15.40;6.00;;;;;;;8.47;64.78;100890.35;214264;1285;138194;-87
2023/03/29 09:34:10;;;;;;;14.90;5.70;;;;;;;8.68;64.90;100891.07;214724;1285;138155;-85
2023/03/29 09:39:13;;;;;;;16.30;5.60;;;;;;;8.79;63.55;100878.73;214504;1286;139164;-86
2023/03/29 09:44:24;;;;;;;13.90;5.50;;;;;;;8.87;63.13;100874.95;214999;1285;97965;-86
2023/03/29 09:49:32;;;;;;;15.30;6.30;;;;;;;8.92;62.76;100875.30;214325;1289;138292;-86
2023/03/29 09:54:32;;;;;;;15.50;6.10;;;;;;;8.91;62.37;100875.49;215079;1285;138244;-86
2023/03/29 09:59:32;;;;;;;14.20;6.30;;;;;;;8.93;62.73;100868.27;215775;1289;138742;-88
2023/03/29 10:04:33;;;;;;;13.70;5.40;;;;;;;9.15;62.39;100862.45;215609;1285;138822;-86
2023/03/29 10:09:34;;;;;;;15.30;6.00;;;;;;;9.27;61.53;100852.05;214986;1285;139747;-86
2023/03/29 10:14:42;;;;;;;15.60;5.90;;;;;;;9.40;61.79;100837.13;215468;1285;97905;-86
2023/03/29 10:19:56;;;;;;;16.50;6.90;;;;;;;9.66;61.50;100833.30;214784;1289;138352;-86
2023/03/29 10:24:57;;;;;;;15.10;7.10;;;;;;;9.80;60.31;100830.98;215142;1286;138436;-88
2023/03/29 10:30:00;;;;;;;16.70;6.10;;;;;;;9.90;60.74;100820.69;214862;1289;138833;-87
2023/03/29 10:35:09;;;;;;;13.90;5.40;;;;;;;10.05;60.22;100810.64;215609;1288;138082;-83
2023/03/29 10:40:29;;;;;;;13.50;5.30;;;;;;;10.26;59.39;100806.39;214797;1286;139089;-88
2023/03/29 10:45:33;;;;;;;10.90;5.20;;;;;;;10.41;58.02;100803.84;214882;1288;139962;-86
2023/03/29 10:50:38;;;;;;;9.30;4.00;;;;;;;10.50;56.81;100796.84;214424;1288;139465;-87
2023/03/29 10:56:23;;;;;;;11.60;4.20;;;;;;;10.56;55.58;100792.55;214796;1285;138155;-85
2023/03/29 11:01:33;;;;;;;13.10;4.30;;;;;;;10.62;55.22;100787.85;214145;1286;138412;-86
2023/03/29 11:06:52;;;;;;;11.90;4.60;;;;;;;10.71;54.78;100783.59;214866;1287;138978;-84
2023/03/29 11:12:18;;;;;;;14.40;4.30;;;;;;;10.68;54.57;100781.58;214477;1286;205193;-83
2023/03/29 11:17:36;;;;;;;12.70;5.40;;;;;;;10.66;53.94;100765.27;215120;1288;139942;-86
2023/03/29 11:22:57;;;;;;;13.00;4.60;;;;;;;10.61;53.88;100765.19;214764;1288;138905;-85
2023/03/29 11:28:15;;;;;;;15.60;5.10;;;;;;;10.57;53.85;100752.99;214986;1285;138487;-89
2023/03/29 11:33:54;;;;;;;12.50;4.80;;;;;;;10.60;53.77;100742.67;214266;1285;138980;-89
2023/03/29 11:39:11;;;;;;;12.90;3.90;;;;;;;10.60;53.03;100744.80;214813;1285;138788;-86
2023/03/29 11:44:28;;;;;;;12.20;4.40;;;;;;;10.76;53.13;100734.83;215241;1285;106925;-85
2023/03/29 11:49:48;;;;;;;12.70;4.90;;;;;;;10.90;53.09;100725.03;214923;1285;138636;-87
2023/03/29 11:54:48;;;;;;;17.60;5.50;;;;;;;11.09;53.03;100715.70;214689;1286;138474;-87
2023/03/29 12:00:24;;;;;;;11.50;5.10;;;;;;;11.15;51.65;100710.19;214539;1285;139776;-85
2023/03/29 12:05:31;;;;;;;13.10;4.30;;;;;;;11.27;51.06;100701.15;214787;1288;138505;-85
2023/03/29 12:10:42;;;;;;;12.80;4.10;;;;;;;11.44;51.84;100686.86;214450;1285;139400;-86
2023/03/29 12:16:25;;;;;;;10.00;4.10;;;;;;;11.55;49.22;100687.15;215492;1289;138415;-87
2023/03/29 12:21:29;;;;;;;10.20;4.30;;;;;;;11.42;48.65;100687.23;214344;1288;138895;-86
2023/03/29 12:26:39;;;;;;;12.50;4.40;;;;;;;11.43;50.14;100680.46;214810;1285;97940;-89
2023/03/29 12:31:51;;;;;;;10.60;4.20;;;;;;;11.46;49.75;100673.34;214974;1285;139087;-87
2023/03/29 12:37:05;;;;;;;12.00;5.10;;;;;;;11.53;50.88;100665.23;214862;1285;138249;-87
2023/03/29 12:42:20;;;;;;;9.90;4.90;;;;;;;11.62;49.99;100668.91;214203;1287;139021;-87
2023/03/29 12:47:24;;;;;;;10.40;5.00;;;;;;;11.62;50.65;100660.25;214521;1289;139300;-87
2023/03/29 12:52:33;;;;;;;12.10;4.40;;;;;;;11.70;50.41;100649.77;214409;1285;139179;-86
2023/03/29 12:57:36;;;;;;;11.90;4.80;;;;;;;11.62;50.33;100647.88;214759;1287;138433;-87
2023/03/29 13:02:38;;;;;;;15.30;5.00;;;;;;;11.64;49.91;100644.20;214608;1286;138159;-91
2023/03/29 13:07:48;;;;;;;15.40;4.70;;;;;;;11.47;49.32;100638.48;215188;1285;138791;-86
2023/03/29 13:12:49;;;;;;;17.20;5.70;;;;;;;11.45;48.63;100631.20;214420;1288;138584;-87
2023/03/29 13:18:18;;;;;;;14.20;5.40;;;;;;;11.36;48.83;100629.30;214812;1285;138958;-89
2023/03/29 13:24:00;;;;;;;13.40;5.50;;;;;;;11.14;49.24;100625.98;215277;1285;139979;-87
2023/03/29 13:29:25;;;;;;;17.00;5.90;;;;;;;11.09;50.36;100625.61;214868;1289;139071;-91
2023/03/29 13:34:35;;;;;;;12.20;5.50;;;;;;;11.02;50.52;100615.44;215331;1288;138802;-90
2023/03/29 13:39:36;;;;;;;15.00;5.60;;;;;;;10.99;51.12;100611.87;214142;1286;139136;-87
2023/03/29 13:44:44;;;;;;;12.00;5.80;;;;;;;11.06;51.45;100604.47;214955;1285;97951;-87
2023/03/29 13:49:52;;;;;;;12.30;5.30;;;;;;;11.07;51.23;100597.63;214520;1285;138861;-89
2023/03/29 13:55:05;;;;;;;10.30;4.70;;;;;;;11.13;51.32;100596.91;214686;1285;138463;-88
2023/03/29 14:00:14;;;;;;;11.90;5.50;;;;;;;11.12;50.88;100590.14;214288;1288;138700;-87
2023/03/29 14:05:18;;;;;;;11.30;5.10;;;;;;;11.14;51.29;100588.20;214737;1285;138497;-88
2023/03/29 14:10:26;;;;;;;11.30;5.30;;;;;;;11.15;51.82;100581.67;214393;1285;138452;-89
2023/03/29 14:15:40;;;;;;;13.30;5.20;;;;;;;11.16;51.81;100576.65;214508;1285;139116;-86
2023/03/29 14:20:53;;;;;;;11.80;5.50;;;;;;;11.14;52.14;100568.21;214367;1288;209357;-89
2023/03/29 14:25:54;;;;;;;10.70;4.80;;;;;;;11.09;52.42;100567.45;214751;1288;138118;-89
2023/03/29 14:30:55;;;;;;;13.60;6.50;;;;;;;11.06;52.87;100562.45;214352;1289;139070;-89
2023/03/29 14:35:59;;;;;;;14.60;6.10;;;;;;;11.10;53.12;100549.04;214816;1288;138320;-88
2023/03/29 14:41:01;;;;;;;7.80;3.10;;;;;;;11.19;52.84;100545.59;215364;1285;139152;-88
2023/03/29 14:46:04;;;;;;;8.90;4.50;;;;;;;11.22;52.01;100540.19;215179;1285;138686;-88
2023/03/29 14:51:05;;;;;;;11.40;4.30;;;;;;;11.22;52.16;100543.73;214839;1285;138448;-88
2023/03/29 14:56:14;;;;;;;12.60;5.90;;;;;;;11.22;52.20;100531.14;215293;1285;138158;-88
2023/03/29 15:01:18;;;;;;;9.70;3.40;;;;;;;11.16;52.28;100522.83;214487;1286;139675;-87
2023/03/29 15:06:19;;;;;;;9.50;3.60;;;;;;;11.15;52.38;100514.38;216557;1285;138271;-92
2023/03/29 15:11:23;;;;;;;11.10;3.90;;;;;;;11.04;52.38;100510.34;214240;1285;139964;-86
2023/03/29 15:16:26;;;;;;;12.90;4.40;;;;;;;10.86;53.17;100502.89;214620;1285;138909;-86
2023/03/29 15:21:33;;;;;;;9.50;4.20;;;;;;;10.76;53.81;100493.67;214169;1288;140886;-86
2023/03/29 15:26:36;;;;;;;12.80;4.80;;;;;;;10.68;54.05;100495.86;214806;1285;108421;-85
2023/03/29 15:31:39;;;;;;;10.70;4.10;;;;;;;10.63;54.52;100487.61;214119;1286;138650;-86
2023/03/29 15:36:42;;;;;;;12.70;4.60;;;;;;;10.55;54.20;100489.10;214636;1285;139181;-84
2023/03/29 15:41:45;;;;;;;8.90;4.20;;;;;;;10.44;54.69;100487.46;214091;1285;138789;-87
2023/03/29 15:46:45;;;;;;;10.50;4.00;;;;;;;10.31;54.86;100485.64;214724;1288;138670;-86
2023/03/29 15:51:46;;;;;;;10.10;3.40;;;;;;;10.25;55.39;100480.85;214310;1288;138923;-84
2023/03/29 15:57:11;;;;;;;18.70;3.80;;;;;;;10.21;55.88;100488.10;214954;1285;98222;-88
2023/03/29 16:02:15;;;;;;;9.70;3.30;;;;;;;10.15;55.97;100484.64;214299;1288;138320;-86
2023/03/29 16:07:17;;;;;;;7.20;3.00;;;;;;;10.07;56.09;100487.98;214795;1289;139419;-84
2023/03/29 16:12:17;;;;;;;8.50;3.30;;;;;;;9.99;56.16;100489.65;214804;1286;232464;-86
2023/03/29 16:17:18;;;;;;;7.40;2.80;;;;;;;9.88;56.38;100486.51;215145;1288;138100;-87
2023/03/29 16:22:18;;;;;;;9.20;4.30;;;;;;;9.79;57.04;100493.60;215340;1285;138410;-91
2023/03/29 16:27:19;;;;;;;12.30;4.10;;;;;;;9.69;57.74;100503.73;215613;1285;137942;-86
2023/03/29 16:32:19;;;;;;;12.40;3.80;;;;;;;9.58;58.20;100500.27;215026;1286;138682;-87
2023/03/29 16:37:20;;;;;;;13.90;4.60;;;;;;;9.50;58.45;100508.52;214797;1287;138962;-87
2023/03/29 16:42:20;;;;;;;13.10;4.20;;;;;;;9.42;59.13;100504.46;214273;1286;138557;-86
2023/03/29 16:47:20;;;;;;;11.20;4.70;;;;;;;9.37;59.58;100501.63;214743;1286;138463;-87
2023/03/29 16:52:22;;;;;;;13.80;4.90;;;;;;;9.31;60.03;100497.68;214163;1287;138884;-90
2023/03/29 16:57:23;;;;;;;10.50;4.70;;;;;;;9.25;60.50;100484.41;214865;1289;137929;-86
2023/03/29 17:02:24;;;;;;;12.30;4.90;;;;;;;9.19;61.06;100479.04;214324;1288;138256;-88
2023/03/29 17:07:25;;;;;;;14.90;5.20;;;;;;;9.14;61.32;100478.64;214670;1286;138025;-88
2023/03/29 17:12:25;;;;;;;12.10;4.30;;;;;;;9.07;61.60;100474.36;214274;1289;140171;-86
2023/03/29 17:17:26;;;;;;;14.70;6.40;;;;;;;8.99;62.27;100474.45;214692;1288;139058;-86
2023/03/29 17:22:26;;;;;;;13.80;5.90;;;;;;;8.95;62.67;100463.55;214212;1285;138069;-87
2023/03/29 17:27:28;;;;;;;14.30;5.40;;;;;;;8.90;63.34;100479.23;214760;1286;138581;-86
2023/03/29 17:32:30;;;;;;;13.80;5.90;;;;;;;8.83;63.87;100478.01;214343;1288;138027;-86
2023/03/29 17:37:30;;;;;;;14.90;6.50;;;;;;;8.76;64.29;100473.08;214735;1286;138456;-87
2023/03/29 17:42:30;;;;;;;16.00;6.80;;;;;;;8.68;64.63;100472.85;214525;1285;138773;-86
2023/03/29 17:47:31;;;;;;;15.10;7.70;;;;;;;8.63;65.10;100472.45;214972;1289;138083;-87
2023/03/29 17:52:32;;;;;;;19.30;8.40;;;;;;;8.57;65.66;100478.05;214355;1288;138824;-87
2023/03/29 17:57:32;;;;;;;22.00;10.30;;;;;;;8.53;65.84;100481.72;214893;1288;138485;-87
2023/03/29 18:02:33;;;;;;;24.70;11.80;;;;;;;8.48;66.37;100477.62;214401;1288;138888;-86
2023/03/29 18:07:34;;;;;;;18.10;10.20;;;;;;;8.43;66.86;100478.47;214768;1286;138185;-87
2023/03/29 18:12:35;;;;;;;24.90;12.10;;;;;;;8.39;67.15;100477.98;214302;1286;138081;-86
2023/03/29 18:17:35;;;;;;;21.40;10.10;;;;;;;8.36;67.68;100480.36;214825;1285;138528;-86
2023/03/29 18:22:37;;;;;;;21.40;10.70;;;;;;;8.32;67.99;100482.92;214306;1288;138662;-86
2023/03/29 18:27:38;;;;;;;25.80;11.60;;;;;;;8.27;68.31;100481.56;214973;1285;138160;-86
2023/03/29 18:32:38;;;;;;;32.40;14.20;;;;;;;8.23;68.89;100481.80;214500;1288;139226;-86
2023/03/29 18:37:39;;;;;;;27.20;12.40;;;;;;;8.19;69.23;100484.98;214908;1289;138111;-86
2023/03/29 18:42:39;;;;;;;31.90;15.60;;;;;;;8.14;69.85;100481.20;214286;1290;138536;-86
2023/03/29 18:47:40;;;;;;;32.40;15.50;;;;;;;8.09;70.46;100485.92;214646;1288;138479;-86
2023/03/29 18:52:40;;;;;;;32.90;15.50;;;;;;;8.03;70.84;100483.60;214036;1288;138765;-86
2023/03/29 18:57:41;;;;;;;31.90;15.10;;;;;;;7.99;71.37;100478.43;214801;1291;138974;-86
2023/03/29 19:02:41;;;;;;;45.80;21.50;;;;;;;7.95;71.46;100473.65;214359;1288;138346;-87
2023/03/29 19:07:42;;;;;;;57.90;24.50;;;;;;;7.92;71.89;100467.86;214721;1285;139531;-85
2023/03/29 19:12:43;;;;;;;42.80;18.50;;;;;;;7.88;72.18;100464.48;214154;1288;139285;-86
2023/03/29 19:17:43;;;;;;;31.50;15.10;;;;;;;7.83;72.67;100468.27;214752;1285;140239;-84
2023/03/29 19:22:44;;;;;;;22.70;11.60;;;;;;;7.79;73.03;100471.56;214301;1288;139253;-85
2023/03/29 19:27:45;;;;;;;20.10;9.40;;;;;;;7.75;73.45;100464.19;215058;1285;139705;-86
2023/03/29 19:32:45;;;;;;;24.50;11.90;;;;;;;7.70;73.63;100459.68;214592;1289;139339;-87
2023/03/29 19:37:46;;;;;;;31.10;15.40;;;;;;;7.67;73.92;100465.81;214733;1289;138949;-86
2023/03/29 19:42:46;;;;;;;28.70;13.70;;;;;;;7.64;74.33;100461.59;214390;1286;140154;-85
2023/03/29 19:47:55;;;;;;;22.20;12.10;;;;;;;7.60;74.74;100460.94;215213;1285;139009;-86
2023/03/29 19:52:57;;;;;;;27.10;12.20;;;;;;;7.56;75.28;100461.31;214315;1291;139944;-85
2023/03/29 19:57:57;;;;;;;25.10;12.00;;;;;;;7.52;75.55;100464.05;214753;1286;140046;-85
2023/03/29 20:02:58;;;;;;;22.80;11.40;;;;;;;7.49;76.00;100468.73;214229;1288;139147;-85
2023/03/29 20:07:59;;;;;;;25.00;11.40;;;;;;;7.44;76.41;100468.08;214455;1288;138728;-85
2023/03/29 20:12:59;;;;;;;22.50;11.40;;;;;;;7.43;76.59;100459.58;214014;1286;139975;-86
2023/03/29 20:18:00;;;;;;;21.60;10.50;;;;;;;7.41;76.79;100457.35;214314;1285;138873;-86
2023/03/29 20:23:03;;;;;;;20.50;10.80;;;;;;;7.38;77.07;100454.16;214127;1285;139024;-85
2023/03/29 20:28:05;;;;;;;19.90;9.90;;;;;;;7.36;77.13;100449.65;214621;1288;139166;-87
2023/03/29 20:33:06;;;;;;;18.60;9.90;;;;;;;7.34;77.37;100450.23;214377;1288;139534;-89
2023/03/29 20:38:07;;;;;;;20.60;10.60;;;;;;;7.33;77.45;100446.06;214882;1285;138628;-87
2023/03/29 20:43:17;;;;;;;20.80;9.80;;;;;;;7.32;77.56;100438.04;214221;1289;139461;-87
2023/03/29 20:48:20;;;;;;;23.00;10.10;;;;;;;7.31;77.70;100439.05;215109;1289;139464;-88
2023/03/29 20:53:20;;;;;;;20.30;9.10;;;;;;;7.30;77.75;100436.45;214532;1286;139824;-86
2023/03/29 20:58:21;;;;;;;25.50;10.90;;;;;;;7.29;77.92;100431.09;214856;1286;139543;-87
2023/03/29 21:03:21;;;;;;;23.00;10.90;;;;;;;7.29;78.13;100433.20;214267;1288;139287;-88
2023/03/29 21:08:22;;;;;;;20.40;10.80;;;;;;;7.29;78.25;100423.98;214955;1286;98875;-87
2023/03/29 21:13:22;;;;;;;19.80;9.90;;;;;;;7.28;78.28;100419.96;214146;1289;138534;-89
2023/03/29 21:18:23;;;;;;;19.20;9.80;;;;;;;7.27;78.48;100411.19;214618;1286;138712;-87
2023/03/29 21:23:23;;;;;;;21.20;10.10;;;;;;;7.27;78.61;100411.11;214432;1286;139311;-88
2023/03/29 21:28:24;;;;;;;22.00;10.30;;;;;;;7.24;78.96;100411.89;214426;1285;139092;-87
2023/03/29 21:33:25;;;;;;;25.10;11.20;;;;;;;7.21;79.05;100406.65;214109;1288;139490;-87
2023/03/29 21:38:26;;;;;;;23.30;12.70;;;;;;;7.18;79.22;100404.88;214697;1289;98062;-88
2023/03/29 21:43:26;;;;;;;22.40;12.10;;;;;;;7.16;79.40;100400.04;213930;1288;139132;-87
2023/03/29 21:48:27;;;;;;;21.70;11.20;;;;;;;7.14;79.63;100387.80;214870;1285;138912;-87
2023/03/29 21:53:27;;;;;;;22.40;11.30;;;;;;;7.10;79.83;100384.27;214105;1285;139350;-88
2023/03/29 21:58:27;;;;;;;23.90;12.00;;;;;;;7.08;79.96;100376.46;214719;1288;139389;-87
2023/03/29 22:03:28;;;;;;;28.30;12.70;;;;;;;7.06;79.98;100370.02;213924;1289;138907;-87
2023/03/29 22:08:29;;;;;;;26.40;13.20;;;;;;;7.04;80.42;100365.34;214600;1288;99250;-87
2023/03/29 22:13:30;;;;;;;22.60;12.50;;;;;;;7.01;80.28;100358.93;213983;1294;138764;-88
2023/03/29 22:18:42;;;;;;;27.00;12.40;;;;;;;6.97;80.71;100359.56;214603;1285;139142;-87
2023/03/29 22:23:48;;;;;;;21.00;11.50;;;;;;;6.96;80.80;100356.55;214029;1286;138993;-87
2023/03/29 22:28:49;;;;;;;22.80;12.20;;;;;;;6.95;80.79;100354.36;214364;1299;139983;-87
2023/03/29 22:33:50;;;;;;;26.20;12.30;;;;;;;6.94;80.81;100352.45;215041;1287;139085;-87
2023/03/29 22:38:51;;;;;;;27.90;11.70;;;;;;;6.94;80.90;100338.45;214548;1287;138865;-88
2023/03/29 22:43:54;;;;;;;18.40;9.70;;;;;;;6.93;80.88;100343.98;215196;1288;139506;-87
2023/03/29 22:48:55;;;;;;;23.90;12.10;;;;;;;6.94;80.95;100342.44;214530;1287;139183;-87